KCEZ/CEZ METAR and TAF weather

Enter ICAO airport designator
Station Type Date Time Source
KCEZ METAR 2020/09/18 18:53 UTC NOAA

KCEZ 181853Z AUTO 22007KT 10SM CLR 27/02 A3031 RMK AO2 SLP195 T02720017


Station Type Date Time Source
KCEZ Decoded METAR 2020/09/18 18:53 UTC NOAA

CORTEZ MONTEZUMA COUNTY AIRPORT , CO, United States (KCEZ) 37-18N 108-38W 1797M
Sep 18, 2020 - 02:53 PM EDT / 2020.09.18 1853 UTC
Wind: from the SW (220 degrees) at 8 MPH (7 KT):0
Visibility: 10 mile(s):0
Sky conditions: clear
Temperature: 81.0 F (27.2 C)
Dew Point: 35.1 F (1.7 C)
Relative Humidity: 19%
Pressure (altimeter): 30.31 in. Hg (1026 hPa)
ob: KCEZ 181853Z AUTO 22007KT 10SM CLR 27/02 A3031 RMK AO2 SLP195 T02720017
cycle: 19

Station Type Date Time Source
KCEZ TAF UTC NOAA

Error!

Example: see airport list